< < Back
Terminal Aerodrome Forecast


Current Version              Previous Versions:   1  2  3  4  5  6  7  8  9  

Terminal Aerodrome Forecast

449
FTUS42 KTAE 181700
TAFABY
TAF
KABY 181720Z 1818/1918 02005KT P6SM BKN250
     FM190300 00000KT P6SM SCT250
     FM191400 09007KT P6SM BKN250=



Latest METAR

712
SAUS70 KWBC 181900 RRQ
MTRABY
METAR KABY 181853Z 09005KT 10SM CLR 31/16 A2994 RMK AO2 SLP135
T03110156


USA.gov is the U.S. government's official web portal to all federal, state and local government web resources and services.